createdAt,value
2022-12-22T00:00:01.394Z,9.53
2022-12-22T00:02:27.950Z,9.51
2022-12-22T00:04:54.492Z,9.52
2022-12-22T00:07:21.039Z,9.49
2022-12-22T00:09:47.536Z,9.48
2022-12-22T00:12:14.037Z,9.48
2022-12-22T00:14:40.511Z,9.61
2022-12-22T00:17:07.018Z,9.48
2022-12-22T00:19:33.474Z,9.46
2022-12-22T00:22:00.002Z,9.55
2022-12-22T00:24:27.644Z,9.46
2022-12-22T00:26:54.087Z,9.50
2022-12-22T00:29:20.561Z,9.49
2022-12-22T00:31:46.989Z,9.45
2022-12-22T00:34:13.470Z,9.44
2022-12-22T00:36:39.914Z,9.71
2022-12-22T00:39:06.330Z,9.49
2022-12-22T00:41:32.824Z,9.50
2022-12-22T00:43:59.263Z,9.50
2022-12-22T00:46:25.782Z,9.44
2022-12-22T00:48:52.243Z,9.41
2022-12-22T00:51:18.670Z,9.46
2022-12-22T00:53:45.132Z,9.50
2022-12-22T00:56:12.558Z,9.52
2022-12-22T00:58:39.041Z,9.64
2022-12-22T01:01:05.500Z,9.52
2022-12-22T01:03:32.067Z,9.49
2022-12-22T01:05:58.557Z,9.48
2022-12-22T01:08:24.983Z,9.46
2022-12-22T01:10:51.460Z,9.44
2022-12-22T01:13:17.894Z,9.54
2022-12-22T01:15:44.450Z,9.51
2022-12-22T01:18:10.923Z,9.53
2022-12-22T01:20:37.364Z,9.58
2022-12-22T01:23:03.804Z,9.55
2022-12-22T01:25:30.203Z,9.55
2022-12-22T01:27:56.643Z,9.53
2022-12-22T01:30:23.058Z,9.55
2022-12-22T01:32:49.515Z,9.56
2022-12-22T01:35:15.917Z,9.56
2022-12-22T01:37:42.340Z,9.53
2022-12-22T01:40:08.822Z,9.55
2022-12-22T01:42:35.230Z,9.51
2022-12-22T01:45:01.643Z,9.53
2022-12-22T01:47:28.084Z,9.48
2022-12-22T01:49:54.482Z,9.47
2022-12-22T01:52:20.933Z,9.43
2022-12-22T01:54:47.377Z,9.43
2022-12-22T01:57:13.828Z,9.43
2022-12-22T01:59:40.294Z,9.45
2022-12-22T02:02:06.993Z,9.42
2022-12-22T02:04:33.491Z,9.46
2022-12-22T02:07:00.606Z,9.60
2022-12-22T02:09:27.394Z,9.52
2022-12-22T02:11:53.812Z,9.42
2022-12-22T02:14:24.727Z,9.46
2022-12-22T02:16:54.295Z,9.34
2022-12-22T02:19:20.727Z,9.31
2022-12-22T02:21:47.154Z,9.29
2022-12-22T02:24:13.618Z,9.41
2022-12-22T02:26:40.069Z,9.36
2022-12-22T02:29:06.478Z,9.42
2022-12-22T02:31:32.960Z,9.42
2022-12-22T02:33:59.579Z,9.43
2022-12-22T02:36:26.060Z,9.33
2022-12-22T02:38:52.494Z,9.34
2022-12-22T02:41:18.929Z,9.44
2022-12-22T02:43:45.399Z,9.46
2022-12-22T02:46:11.913Z,9.55
2022-12-22T02:48:38.455Z,9.54
2022-12-22T02:51:04.900Z,9.47
2022-12-22T02:53:31.348Z,9.52
2022-12-22T02:55:57.772Z,9.54
2022-12-22T02:58:24.329Z,9.62
2022-12-22T03:00:50.791Z,9.58
2022-12-22T03:03:17.528Z,9.54
2022-12-22T03:05:44.124Z,9.58
2022-12-22T03:08:10.572Z,9.56
2022-12-22T03:10:37.054Z,9.58
2022-12-22T03:13:03.478Z,9.70
2022-12-22T03:15:29.889Z,9.66
2022-12-22T03:17:56.323Z,9.61
2022-12-22T03:20:22.789Z,9.69
2022-12-22T03:22:50.822Z,9.67
2022-12-22T03:25:23.139Z,9.87
2022-12-22T03:27:49.582Z,9.86
2022-12-22T03:30:16.047Z,9.76
2022-12-22T03:32:42.517Z,9.86
2022-12-22T03:35:09.121Z,9.81
2022-12-22T03:37:37.832Z,9.83
2022-12-22T03:40:04.233Z,9.80
2022-12-22T03:42:31.032Z,9.84
2022-12-22T03:44:57.461Z,9.90
2022-12-22T03:47:23.934Z,9.97
2022-12-22T03:49:51.427Z,9.93
2022-12-22T03:52:18.077Z,9.99
2022-12-22T03:54:44.996Z,9.89
2022-12-22T03:57:11.416Z,9.94
2022-12-22T03:59:37.869Z,9.76
2022-12-22T04:02:04.512Z,9.67
2022-12-22T04:04:31.504Z,9.69
2022-12-22T04:06:57.902Z,9.71
2022-12-22T04:09:24.383Z,9.69
2022-12-22T04:11:51.029Z,9.71
2022-12-22T04:14:17.585Z,9.75
2022-12-22T04:16:44.109Z,9.71
2022-12-22T04:19:10.772Z,9.71
2022-12-22T04:21:37.214Z,9.72
2022-12-22T04:24:03.673Z,9.74
2022-12-22T04:26:30.098Z,9.91
2022-12-22T04:28:56.602Z,9.78
2022-12-22T04:31:23.113Z,9.85
2022-12-22T04:33:49.584Z,9.94
2022-12-22T04:36:16.031Z,9.84
2022-12-22T04:38:42.473Z,9.91
2022-12-22T04:41:08.923Z,9.81
2022-12-22T04:43:35.329Z,9.80
2022-12-22T04:46:01.812Z,9.77
2022-12-22T04:48:28.295Z,9.77
2022-12-22T04:50:54.749Z,9.72
2022-12-22T04:53:21.190Z,9.74
2022-12-22T04:55:47.639Z,9.81
2022-12-22T04:58:14.070Z,9.75
2022-12-22T05:00:40.538Z,9.71
2022-12-22T05:03:07.139Z,9.73
2022-12-22T05:05:33.625Z,9.94
2022-12-22T05:08:00.114Z,9.82
2022-12-22T05:10:26.628Z,9.77
2022-12-22T05:12:53.057Z,9.88
2022-12-22T05:15:19.546Z,9.98
2022-12-22T05:17:45.985Z,9.77
2022-12-22T05:20:12.412Z,9.71
2022-12-22T05:22:38.880Z,9.61
2022-12-22T05:25:06.173Z,9.60
2022-12-22T05:27:32.592Z,9.61
2022-12-22T05:29:58.993Z,9.55
2022-12-22T05:32:25.422Z,9.60
2022-12-22T05:34:51.863Z,9.58
2022-12-22T05:37:18.279Z,9.63
2022-12-22T05:39:44.691Z,9.78
2022-12-22T05:42:11.136Z,9.78
2022-12-22T05:44:37.621Z,9.66
2022-12-22T05:47:04.019Z,9.66
2022-12-22T05:49:30.417Z,9.73
2022-12-22T05:51:56.862Z,9.75
2022-12-22T05:54:23.273Z,9.74
2022-12-22T05:56:49.665Z,9.76
2022-12-22T05:59:16.081Z,9.77
2022-12-22T06:01:42.621Z,9.85
2022-12-22T06:04:09.154Z,9.88
2022-12-22T06:06:35.653Z,9.93
2022-12-22T06:09:02.075Z,9.70
2022-12-22T06:11:28.537Z,9.63
2022-12-22T06:13:54.982Z,9.56
2022-12-22T06:16:21.536Z,9.51
2022-12-22T06:18:48.019Z,9.39
2022-12-22T06:21:14.513Z,9.53
2022-12-22T06:23:40.965Z,9.41
2022-12-22T06:26:07.445Z,9.38
2022-12-22T06:28:33.845Z,9.32
2022-12-22T06:31:00.341Z,9.36
2022-12-22T06:33:26.869Z,9.33
2022-12-22T06:35:58.697Z,9.35
2022-12-22T06:38:25.895Z,9.31
2022-12-22T06:40:52.357Z,9.31
2022-12-22T06:43:18.811Z,9.43
2022-12-22T06:45:45.247Z,9.77
2022-12-22T06:48:11.662Z,9.64
2022-12-22T06:50:38.149Z,9.45
2022-12-22T06:53:04.619Z,9.32
2022-12-22T06:55:31.266Z,9.24
2022-12-22T06:57:57.743Z,9.24
2022-12-22T07:00:24.258Z,9.17
2022-12-22T07:02:50.796Z,9.13
2022-12-22T07:05:17.303Z,9.09
2022-12-22T07:07:43.769Z,9.08
2022-12-22T07:10:10.186Z,9.03
2022-12-22T07:12:38.675Z,9.02
2022-12-22T07:15:05.115Z,8.98
2022-12-22T07:17:31.567Z,8.95
2022-12-22T07:19:58.009Z,8.93
2022-12-22T07:22:29.786Z,8.93
2022-12-22T07:24:57.338Z,8.86
2022-12-22T07:27:23.824Z,8.83
2022-12-22T07:29:50.271Z,8.83
2022-12-22T07:32:16.739Z,8.79
2022-12-22T07:34:43.210Z,8.77
2022-12-22T07:37:09.679Z,8.82
2022-12-22T07:39:36.149Z,8.83
2022-12-22T07:42:02.668Z,8.89
2022-12-22T07:44:29.142Z,8.89
2022-12-22T07:46:55.727Z,8.91
2022-12-22T07:49:22.231Z,8.88
2022-12-22T07:51:48.819Z,8.89
2022-12-22T07:54:15.345Z,8.88
2022-12-22T07:56:41.819Z,8.89
2022-12-22T07:59:08.374Z,8.99
2022-12-22T08:01:35.114Z,8.99
2022-12-22T08:04:01.643Z,8.98
2022-12-22T08:06:28.108Z,9.00
2022-12-22T08:08:54.723Z,9.04
2022-12-22T08:11:21.136Z,9.12
2022-12-22T08:13:47.628Z,9.15
2022-12-22T08:16:14.120Z,9.22
2022-12-22T08:18:40.908Z,9.31
2022-12-22T08:21:07.421Z,9.32
2022-12-22T08:23:34.081Z,9.37
2022-12-22T08:26:00.682Z,9.41
2022-12-22T08:28:27.099Z,9.39
2022-12-22T08:30:53.804Z,9.48
2022-12-22T08:33:20.328Z,9.48
2022-12-22T08:35:47.636Z,9.47
2022-12-22T08:38:14.178Z,9.52
2022-12-22T08:40:40.680Z,9.49
2022-12-22T08:43:07.130Z,9.49
2022-12-22T08:45:33.666Z,9.51
2022-12-22T08:48:00.868Z,9.56
2022-12-22T08:50:27.671Z,9.61
2022-12-22T08:52:56.984Z,9.71
2022-12-22T08:55:25.741Z,9.67
2022-12-22T08:57:55.970Z,9.85
2022-12-22T09:00:23.702Z,9.73
2022-12-22T09:02:50.278Z,9.73
2022-12-22T09:05:17.850Z,9.82
2022-12-22T09:07:44.537Z,9.99
2022-12-22T09:10:11.031Z,10.12
2022-12-22T09:12:37.718Z,10.32
2022-12-22T09:15:04.500Z,10.25
2022-12-22T09:17:33.284Z,10.25
2022-12-22T09:19:59.948Z,10.42
2022-12-22T09:22:28.567Z,10.38
2022-12-22T09:24:55.427Z,10.50
2022-12-22T09:27:21.867Z,10.39
2022-12-22T09:29:48.347Z,10.42
2022-12-22T09:32:15.112Z,10.46
2022-12-22T09:34:41.631Z,10.54
2022-12-22T09:37:08.032Z,10.53
2022-12-22T09:39:34.634Z,10.57
2022-12-22T09:42:01.056Z,10.62
2022-12-22T09:44:27.535Z,10.63
2022-12-22T09:46:54.381Z,10.62
2022-12-22T09:49:20.849Z,10.63
2022-12-22T09:51:47.265Z,10.58
2022-12-22T09:54:13.741Z,10.57
2022-12-22T09:56:40.165Z,10.50
2022-12-22T09:59:06.628Z,10.49
2022-12-22T10:01:33.166Z,10.51
2022-12-22T10:04:01.009Z,10.52
2022-12-22T10:06:27.673Z,10.52
2022-12-22T10:08:54.370Z,10.61
2022-12-22T10:11:20.838Z,10.63
2022-12-22T10:13:47.324Z,10.67
2022-12-22T10:16:13.886Z,10.67
2022-12-22T10:18:40.310Z,10.72
2022-12-22T10:21:06.788Z,10.73
2022-12-22T10:23:38.885Z,10.94
2022-12-22T10:28:54.444Z,10.66
2022-12-22T10:31:21.047Z,10.57
2022-12-22T10:33:47.965Z,10.45
2022-12-22T10:36:14.441Z,10.36
2022-12-22T10:38:41.089Z,10.32
2022-12-22T10:41:07.894Z,10.44
2022-12-22T10:43:34.418Z,10.23
2022-12-22T10:46:01.382Z,10.22
2022-12-22T10:48:27.898Z,10.11
2022-12-22T10:50:54.307Z,10.09
2022-12-22T10:53:20.739Z,10.09
2022-12-22T10:55:47.223Z,10.15
2022-12-22T10:58:14.157Z,10.18
2022-12-22T11:00:41.753Z,10.14
2022-12-22T11:03:09.487Z,10.11
2022-12-22T11:05:36.955Z,10.10
2022-12-22T11:08:03.600Z,10.05
2022-12-22T11:10:30.195Z,9.99
2022-12-22T11:12:56.779Z,9.92
2022-12-22T11:15:25.117Z,9.91
2022-12-22T11:17:51.980Z,9.86
2022-12-22T11:20:18.586Z,9.82
2022-12-22T11:22:45.203Z,9.78
2022-12-22T11:25:13.482Z,9.76
2022-12-22T11:27:45.775Z,9.76
2022-12-22T11:30:12.645Z,9.79
2022-12-22T11:32:39.045Z,9.75
2022-12-22T11:35:05.526Z,9.76
2022-12-22T11:37:31.993Z,9.80
2022-12-22T11:39:59.712Z,9.73
2022-12-22T11:42:26.252Z,9.83
2022-12-22T11:44:52.671Z,9.80
2022-12-22T11:47:19.145Z,9.75
2022-12-22T11:49:47.818Z,9.77
2022-12-22T11:52:14.264Z,9.85
2022-12-22T11:54:40.694Z,9.82
2022-12-22T11:57:07.155Z,9.88
2022-12-22T11:59:34.159Z,9.98
2022-12-22T12:02:00.678Z,9.95
2022-12-22T12:04:27.174Z,9.93
2022-12-22T12:06:53.624Z,9.93
2022-12-22T12:09:20.091Z,10.01
2022-12-22T12:11:46.492Z,10.03
2022-12-22T12:14:12.914Z,10.00
2022-12-22T12:16:39.464Z,9.97
2022-12-22T12:19:06.062Z,10.03
2022-12-22T12:21:32.493Z,10.15
2022-12-22T12:23:58.896Z,10.21
2022-12-22T12:26:25.430Z,10.21
2022-12-22T12:28:51.839Z,10.26
2022-12-22T12:31:24.311Z,10.27
2022-12-22T12:33:52.620Z,10.28
2022-12-22T12:36:19.110Z,10.34
2022-12-22T12:41:31.977Z,10.25
2022-12-22T12:43:58.410Z,10.29
2022-12-22T12:46:24.978Z,10.35
2022-12-22T12:48:51.467Z,10.43
2022-12-22T12:51:17.938Z,10.44
2022-12-22T12:53:44.341Z,10.48
2022-12-22T12:56:10.783Z,10.46
2022-12-22T12:58:37.343Z,10.53
2022-12-22T13:01:03.815Z,10.51
2022-12-22T13:04:01.715Z,10.48
2022-12-22T13:06:16.666Z,10.53
2022-12-22T13:08:43.062Z,10.61
2022-12-22T13:11:09.490Z,10.63
2022-12-22T13:13:35.999Z,10.58
2022-12-22T13:16:02.580Z,10.63
2022-12-22T13:18:29.163Z,10.57
2022-12-22T13:20:55.881Z,10.51
2022-12-22T13:23:29.429Z,10.46
2022-12-22T13:25:55.928Z,10.47
2022-12-22T13:28:22.384Z,10.44
2022-12-22T13:30:48.877Z,10.48
2022-12-22T13:33:15.318Z,10.47
2022-12-22T13:35:47.593Z,10.47
2022-12-22T13:38:14.827Z,10.46
2022-12-22T13:40:41.291Z,10.47
2022-12-22T13:43:07.965Z,10.46
2022-12-22T13:45:34.525Z,10.51
2022-12-22T13:48:02.876Z,10.48
2022-12-22T13:50:29.425Z,10.46
2022-12-22T13:52:55.988Z,10.45
2022-12-22T13:55:22.576Z,10.48
2022-12-22T13:57:53.280Z,10.49
2022-12-22T14:00:22.987Z,10.44
2022-12-22T14:02:49.604Z,10.50
2022-12-22T14:05:16.188Z,10.54
2022-12-22T14:07:42.616Z,10.44
2022-12-22T14:10:09.062Z,10.44
2022-12-22T14:12:35.585Z,10.40
2022-12-22T14:15:02.166Z,10.39
2022-12-22T14:17:28.704Z,10.35
2022-12-22T14:19:55.164Z,10.41
2022-12-22T14:22:22.019Z,10.44
2022-12-22T14:24:48.557Z,10.41
2022-12-22T14:27:15.232Z,10.42
2022-12-22T14:29:41.892Z,10.42
2022-12-22T14:32:08.873Z,10.46
2022-12-22T14:34:35.501Z,10.54
2022-12-22T14:37:02.178Z,10.46
2022-12-22T14:39:28.849Z,10.49
2022-12-22T14:41:55.488Z,10.45
2022-12-22T14:44:22.182Z,10.46
2022-12-22T14:46:48.695Z,10.48
2022-12-22T14:49:15.413Z,10.54
2022-12-22T14:51:42.081Z,10.54
2022-12-22T14:54:08.696Z,10.49
2022-12-22T14:56:35.754Z,10.45
2022-12-22T14:59:02.514Z,10.47
2022-12-22T15:01:29.360Z,10.46
2022-12-22T15:03:56.106Z,10.40
2022-12-22T15:06:22.859Z,10.39
2022-12-22T15:08:49.252Z,10.36
2022-12-22T15:11:15.675Z,10.34
2022-12-22T15:13:42.097Z,10.31
2022-12-22T15:16:08.732Z,10.27
2022-12-22T15:18:35.221Z,10.24
2022-12-22T15:21:01.764Z,10.18
2022-12-22T15:23:28.307Z,10.14
2022-12-22T15:25:56.001Z,10.07
2022-12-22T15:28:22.485Z,10.02
2022-12-22T15:30:49.168Z,9.99
2022-12-22T15:33:15.669Z,9.95
2022-12-22T15:35:42.151Z,9.94
2022-12-22T15:38:08.569Z,9.91
2022-12-22T15:40:35.004Z,9.85
2022-12-22T15:43:01.481Z,9.83
2022-12-22T15:45:28.678Z,9.80
2022-12-22T15:47:55.297Z,9.75
2022-12-22T15:50:21.782Z,9.75
2022-12-22T15:52:48.220Z,9.74
2022-12-22T15:55:14.656Z,9.74
2022-12-22T15:57:41.137Z,9.77
2022-12-22T16:00:07.587Z,9.75
2022-12-22T16:02:34.139Z,9.81
2022-12-22T16:05:00.665Z,9.91
2022-12-22T16:07:27.094Z,9.85
2022-12-22T16:09:53.539Z,9.82
2022-12-22T16:12:20.050Z,9.80
2022-12-22T16:14:50.234Z,9.83
2022-12-22T16:17:17.351Z,9.85
2022-12-22T16:19:43.802Z,9.87
2022-12-22T16:22:10.213Z,9.86
2022-12-22T16:24:36.661Z,9.92
2022-12-22T16:27:03.141Z,9.89
2022-12-22T16:29:29.650Z,9.94
2022-12-22T16:31:56.136Z,9.92
2022-12-22T16:34:22.616Z,9.92
2022-12-22T16:36:49.077Z,9.99
2022-12-22T16:39:15.508Z,9.94
2022-12-22T16:41:41.926Z,9.90
2022-12-22T16:44:08.377Z,9.90
2022-12-22T16:46:34.956Z,9.93
2022-12-22T16:49:01.532Z,10.05
2022-12-22T16:51:28.001Z,9.98
2022-12-22T16:53:54.412Z,9.94
2022-12-22T16:56:20.886Z,9.98
2022-12-22T16:58:47.329Z,9.99
2022-12-22T17:01:13.761Z,9.98
2022-12-22T17:03:40.315Z,10.04
2022-12-22T17:06:06.816Z,10.01
2022-12-22T17:08:33.287Z,10.05
2022-12-22T17:11:03.364Z,10.02
2022-12-22T17:13:34.601Z,10.07
2022-12-22T17:16:01.089Z,10.08
2022-12-22T17:18:27.539Z,10.03
2022-12-22T17:20:53.983Z,10.00
2022-12-22T17:23:20.448Z,10.05
2022-12-22T17:25:46.915Z,10.01
2022-12-22T17:28:13.338Z,9.98
2022-12-22T17:30:39.774Z,10.01
2022-12-22T17:33:06.187Z,10.04
2022-12-22T17:35:32.660Z,10.06
2022-12-22T17:37:59.113Z,10.03
2022-12-22T17:40:25.711Z,10.07
2022-12-22T17:42:52.151Z,9.97
2022-12-22T17:45:18.634Z,9.96
2022-12-22T17:47:45.094Z,9.88
2022-12-22T17:50:11.551Z,9.85
2022-12-22T17:52:37.971Z,9.84
2022-12-22T17:55:04.409Z,9.77
2022-12-22T17:57:30.858Z,9.76
2022-12-22T17:59:57.274Z,9.73
2022-12-22T18:02:23.880Z,9.73
2022-12-22T18:04:50.489Z,9.72
2022-12-22T18:07:16.906Z,9.64
2022-12-22T18:09:43.341Z,9.55
2022-12-22T18:12:09.802Z,9.53
2022-12-22T18:14:36.260Z,9.47
2022-12-22T18:17:02.710Z,9.37
2022-12-22T18:19:29.145Z,9.34
2022-12-22T18:21:55.551Z,9.43
2022-12-22T18:24:22.094Z,9.29
2022-12-22T18:26:48.507Z,9.20
2022-12-22T18:29:14.939Z,9.17
2022-12-22T18:31:41.556Z,9.21
2022-12-22T18:34:08.054Z,9.17
2022-12-22T18:36:34.467Z,9.14
2022-12-22T18:39:02.361Z,9.11
2022-12-22T18:41:28.829Z,9.18
2022-12-22T18:43:55.288Z,9.18
2022-12-22T18:46:21.780Z,9.16
2022-12-22T18:48:48.253Z,9.08
2022-12-22T18:51:14.678Z,9.06
2022-12-22T18:53:41.101Z,9.06
2022-12-22T18:56:07.513Z,9.08
2022-12-22T18:58:34.000Z,9.04
2022-12-22T19:01:00.504Z,9.02
2022-12-22T19:03:27.048Z,9.01
2022-12-22T19:05:53.486Z,8.99
2022-12-22T19:08:23.242Z,9.00
2022-12-22T19:10:49.674Z,9.03
2022-12-22T19:13:16.816Z,9.01
2022-12-22T19:15:44.412Z,8.96
2022-12-22T19:18:11.289Z,8.96
2022-12-22T19:20:37.731Z,8.93
2022-12-22T19:23:04.167Z,8.92
2022-12-22T19:25:30.616Z,8.92
2022-12-22T19:27:57.097Z,8.92
2022-12-22T19:30:23.515Z,8.92
2022-12-22T19:32:50.019Z,8.89
2022-12-22T19:35:16.588Z,8.86
2022-12-22T19:37:43.082Z,8.87
2022-12-22T19:40:13.015Z,8.84
2022-12-22T19:42:39.569Z,8.87
2022-12-22T19:45:11.530Z,8.91
2022-12-22T19:47:42.052Z,8.91
2022-12-22T19:50:09.545Z,8.95
2022-12-22T19:52:36.207Z,8.95
2022-12-22T19:55:02.952Z,8.89
2022-12-22T19:57:30.539Z,8.93
2022-12-22T19:59:57.034Z,8.95
2022-12-22T20:02:23.598Z,8.92
2022-12-22T20:04:50.419Z,8.97
2022-12-22T20:07:17.413Z,8.91
2022-12-22T20:09:44.304Z,8.93
2022-12-22T20:12:12.595Z,8.93
2022-12-22T20:14:41.178Z,8.92
2022-12-22T20:17:07.681Z,8.94
2022-12-22T20:19:34.383Z,8.92
2022-12-22T20:22:00.892Z,8.95
2022-12-22T20:24:29.693Z,8.89
2022-12-22T20:26:56.393Z,8.92
2022-12-22T20:29:23.017Z,8.90
2022-12-22T20:31:50.824Z,8.86
2022-12-22T20:34:18.416Z,8.86
2022-12-22T20:36:45.090Z,8.91
2022-12-22T20:39:12.778Z,8.84
2022-12-22T20:41:39.610Z,8.82
2022-12-22T20:44:06.027Z,8.83
2022-12-22T20:46:32.644Z,8.82
2022-12-22T20:48:59.231Z,8.75
2022-12-22T20:51:25.704Z,8.76
2022-12-22T20:53:52.191Z,8.76
2022-12-22T20:56:18.620Z,8.74
2022-12-22T20:58:45.107Z,8.73
2022-12-22T21:01:11.635Z,8.74
2022-12-22T21:03:38.157Z,8.71
2022-12-22T21:06:04.596Z,8.68
2022-12-22T21:08:31.890Z,8.68
2022-12-22T21:10:58.442Z,8.67
2022-12-22T21:13:24.844Z,8.65
2022-12-22T21:15:51.261Z,8.65
2022-12-22T21:18:17.757Z,8.62
2022-12-22T21:20:44.274Z,8.58
2022-12-22T21:23:10.678Z,8.64
2022-12-22T21:25:40.632Z,8.64
2022-12-22T21:28:09.660Z,8.66
2022-12-22T21:30:36.115Z,8.65
2022-12-22T21:33:02.743Z,8.68
2022-12-22T21:35:29.199Z,8.71
2022-12-22T21:37:55.648Z,8.72
2022-12-22T21:40:22.082Z,8.69
2022-12-22T21:42:48.499Z,8.70
2022-12-22T21:45:16.351Z,8.72
2022-12-22T21:47:42.790Z,8.71
2022-12-22T21:50:09.188Z,8.66
2022-12-22T21:52:35.614Z,8.69
2022-12-22T21:55:02.063Z,8.66
2022-12-22T21:57:28.492Z,8.70
2022-12-22T21:59:54.953Z,8.70
2022-12-22T22:02:21.580Z,8.77
2022-12-22T22:04:54.023Z,8.79
2022-12-22T22:07:21.193Z,8.78
2022-12-22T22:09:47.816Z,8.80
2022-12-22T22:12:14.300Z,8.81
2022-12-22T22:14:40.742Z,8.82
2022-12-22T22:17:07.220Z,8.79
2022-12-22T22:19:33.644Z,8.78
2022-12-22T22:22:00.108Z,8.78
2022-12-22T22:24:26.541Z,8.81
2022-12-22T22:26:52.954Z,8.79
2022-12-22T22:29:19.343Z,8.83
2022-12-22T22:31:46.015Z,8.86
2022-12-22T22:34:12.522Z,8.86
2022-12-22T22:36:38.948Z,8.88
2022-12-22T22:39:05.337Z,8.92
2022-12-22T22:41:35.210Z,8.96
2022-12-22T22:44:04.212Z,8.97
2022-12-22T22:46:30.703Z,9.05
2022-12-22T22:48:57.138Z,8.99
2022-12-22T22:51:23.548Z,8.99
2022-12-22T22:53:49.973Z,8.98
2022-12-22T22:56:16.387Z,9.04
2022-12-22T22:58:42.795Z,9.05
2022-12-22T23:01:09.307Z,9.09
2022-12-22T23:03:35.802Z,9.05
2022-12-22T23:06:02.432Z,9.03
2022-12-22T23:08:28.872Z,9.09
2022-12-22T23:10:55.302Z,9.13
2022-12-22T23:13:21.703Z,9.11
2022-12-22T23:15:48.185Z,9.15
2022-12-22T23:18:14.637Z,9.19
2022-12-22T23:20:41.038Z,9.20
2022-12-22T23:23:07.491Z,9.21
2022-12-22T23:25:33.959Z,9.21
2022-12-22T23:28:00.381Z,9.24
2022-12-22T23:30:26.822Z,9.26
2022-12-22T23:32:53.255Z,9.24
2022-12-22T23:35:19.638Z,9.26
2022-12-22T23:37:46.041Z,9.22
2022-12-22T23:40:50.410Z,9.21
2022-12-22T23:42:58.820Z,9.35
2022-12-22T23:45:25.228Z,9.28
2022-12-22T23:47:51.627Z,9.34
2022-12-22T23:50:18.027Z,9.30
2022-12-22T23:52:49.206Z,9.35
2022-12-22T23:55:15.909Z,9.33
2022-12-22T23:57:42.316Z,9.36
